Time;durP1;ratioP1;P1;durP2;ratioP2;P2;SDS_P1;SDS_P2;PMS_P1;PMS_P2;Temp;Humidity;BMP_temperature;BMP_pressure;BME280_temperature;BME280_humidity;BME280_pressure;Samples;Min_cycle;Max_cycle;Signal;HPM_P1;HPM_P2
2023/12/17 00:01:27;;;;;;;11.47;7.17;;;;;;;;;;5037473;28;20207;-61
2023/12/17 00:03:55;;;;;;;8.00;5.77;;;;;;;;;;5036998;28;20694;-61
2023/12/17 00:06:23;;;;;;;7.40;6.10;;;;;;;;;;5036781;28;20714;-61
2023/12/17 00:08:52;;;;;;;9.43;6.90;;;;;;;;;;5037542;28;20207;-61
2023/12/17 00:11:20;;;;;;;9.20;6.33;;;;;;;;;;5037425;28;20207;-61
2023/12/17 00:13:48;;;;;;;8.90;6.40;;;;;;;;;;5037253;28;20318;-61
2023/12/17 00:16:18;;;;;;;9.20;7.33;;;;;;;;;;5037207;28;20204;-61
2023/12/17 00:18:46;;;;;;;9.97;6.57;;;;;;;;;;5037262;28;20214;-61
2023/12/17 00:21:14;;;;;;;8.23;6.47;;;;;;;;;;5037209;28;20211;-61
2023/12/17 00:23:42;;;;;;;12.20;7.73;;;;;;;;;;5036988;28;20220;-61
2023/12/17 00:26:10;;;;;;;11.07;7.60;;;;;;;;;;5040061;28;20206;-61
2023/12/17 00:28:39;;;;;;;9.27;7.03;;;;;;;;;;5041358;28;20544;-61
2023/12/17 00:31:07;;;;;;;11.57;7.47;;;;;;;;;;5041274;28;20212;-61
2023/12/17 00:33:39;;;;;;;9.50;7.37;;;;;;;;;;5040759;28;20219;-61
2023/12/17 00:36:08;;;;;;;10.67;6.40;;;;;;;;;;5041172;28;20211;-61
2023/12/17 00:38:36;;;;;;;9.70;6.80;;;;;;;;;;5040823;28;20265;-61
2023/12/17 00:41:05;;;;;;;10.53;7.20;;;;;;;;;;5034903;28;20206;-61
2023/12/17 00:43:35;;;;;;;9.63;6.90;;;;;;;;;;5041168;28;20219;-61
2023/12/17 00:46:03;;;;;;;11.33;7.23;;;;;;;;;;5041122;28;20207;-61
2023/12/17 00:48:31;;;;;;;11.40;6.63;;;;;;;;;;5041000;28;20195;-62
2023/12/17 00:51:01;;;;;;;10.23;7.13;;;;;;;;;;5040713;28;20669;-61
2023/12/17 00:53:29;;;;;;;11.63;7.27;;;;;;;;;;5040628;28;20281;-61
2023/12/17 00:55:57;;;;;;;10.00;6.87;;;;;;;;;;5040814;28;20215;-61
2023/12/17 00:58:25;;;;;;;9.07;7.07;;;;;;;;;;5041167;28;20214;-61
2023/12/17 01:00:53;;;;;;;9.83;6.60;;;;;;;;;;5040705;28;20274;-61
2023/12/17 01:03:23;;;;;;;9.43;6.57;;;;;;;;;;5040164;28;20694;-61
2023/12/17 01:05:51;;;;;;;9.93;7.07;;;;;;;;;;5040174;28;20239;-61
2023/12/17 01:08:21;;;;;;;10.83;7.37;;;;;;;;;;5040826;28;20199;-61
2023/12/17 01:10:49;;;;;;;12.27;7.00;;;;;;;;;;5040551;28;20215;-61
2023/12/17 01:13:17;;;;;;;9.07;7.00;;;;;;;;;;5040717;28;20223;-61
2023/12/17 01:15:45;;;;;;;9.87;6.80;;;;;;;;;;5040084;28;20581;-62
2023/12/17 01:18:13;;;;;;;9.90;6.80;;;;;;;;;;5040415;28;20207;-61
2023/12/17 01:20:42;;;;;;;13.87;7.67;;;;;;;;;;5040316;28;20195;-61
2023/12/17 01:23:10;;;;;;;10.00;6.97;;;;;;;;;;5040276;28;20269;-61
2023/12/17 01:25:39;;;;;;;12.17;7.60;;;;;;;;;;5040010;28;20199;-62
2023/12/17 01:28:07;;;;;;;10.57;6.63;;;;;;;;;;5040124;28;20574;-61
2023/12/17 01:30:36;;;;;;;11.13;7.37;;;;;;;;;;5039866;28;20211;-61
2023/12/17 01:33:04;;;;;;;9.40;7.13;;;;;;;;;;5039334;28;20567;-62
2023/12/17 01:35:32;;;;;;;10.83;7.87;;;;;;;;;;5039868;28;20254;-61
2023/12/17 01:38:00;;;;;;;12.60;7.83;;;;;;;;;;5039002;28;20215;-61
2023/12/17 01:40:28;;;;;;;12.40;7.47;;;;;;;;;;5040162;28;20214;-61
2023/12/17 01:42:58;;;;;;;10.70;7.43;;;;;;;;;;5039662;28;20612;-61
2023/12/17 01:45:26;;;;;;;9.87;7.40;;;;;;;;;;5029529;28;20597;-61
2023/12/17 01:47:54;;;;;;;12.47;7.60;;;;;;;;;;5039718;28;20237;-61
2023/12/17 01:50:23;;;;;;;10.90;7.33;;;;;;;;;;5039699;28;20204;-61
2023/12/17 01:52:53;;;;;;;14.47;7.90;;;;;;;;;;5039880;28;20210;-61
2023/12/17 01:55:22;;;;;;;11.83;7.73;;;;;;;;;;5039837;28;20219;-61
2023/12/17 01:57:50;;;;;;;12.13;7.73;;;;;;;;;;5038116;28;20305;-61
2023/12/17 02:00:20;;;;;;;10.83;7.33;;;;;;;;;;5039805;28;20215;-60
2023/12/17 02:02:48;;;;;;;12.23;7.27;;;;;;;;;;5038997;28;20219;-60
2023/12/17 02:05:16;;;;;;;10.67;7.17;;;;;;;;;;5039203;28;20471;-61
2023/12/17 02:07:44;;;;;;;10.23;6.73;;;;;;;;;;5039135;28;20442;-61
2023/12/17 02:10:13;;;;;;;10.77;7.00;;;;;;;;;;5039632;28;20207;-60
2023/12/17 02:12:41;;;;;;;12.13;7.50;;;;;;;;;;5039443;28;20449;-61
2023/12/17 02:15:09;;;;;;;11.30;7.27;;;;;;;;;;5039219;28;20477;-60
2023/12/17 02:17:39;;;;;;;13.90;6.60;;;;;;;;;;5039138;28;20435;-61
2023/12/17 02:20:08;;;;;;;10.37;7.27;;;;;;;;;;5039354;28;20446;-61
2023/12/17 02:22:37;;;;;;;13.20;7.73;;;;;;;;;;5039418;28;20449;-61
2023/12/17 02:25:07;;;;;;;11.13;7.40;;;;;;;;;;5039195;28;20435;-61
2023/12/17 02:27:35;;;;;;;13.30;7.17;;;;;;;;;;5039329;28;20449;-61
2023/12/17 02:30:04;;;;;;;10.73;7.33;;;;;;;;;;5039224;28;20483;-61
2023/12/17 02:32:32;;;;;;;9.40;6.50;;;;;;;;;;5038894;28;20488;-61
2023/12/17 02:35:00;;;;;;;9.57;6.83;;;;;;;;;;5037290;28;21089;-61
2023/12/17 02:37:29;;;;;;;10.30;7.10;;;;;;;;;;5039228;28;20449;-61
2023/12/17 02:39:57;;;;;;;8.67;6.20;;;;;;;;;;5038635;28;20438;-61
2023/12/17 02:42:27;;;;;;;12.90;7.23;;;;;;;;;;5038947;28;20508;-61
2023/12/17 02:44:55;;;;;;;10.77;7.27;;;;;;;;;;5038619;28;20571;-61
2023/12/17 02:47:23;;;;;;;8.60;6.43;;;;;;;;;;5037940;28;20485;-61
2023/12/17 02:49:51;;;;;;;11.10;7.40;;;;;;;;;;5038868;28;20443;-61
2023/12/17 02:52:20;;;;;;;12.87;7.23;;;;;;;;;;5038512;28;20438;-61
2023/12/17 02:54:48;;;;;;;11.70;7.67;;;;;;;;;;5038743;28;20466;-61
2023/12/17 02:57:16;;;;;;;9.40;6.43;;;;;;;;;;5038637;28;20446;-61
2023/12/17 02:59:46;;;;;;;9.97;6.90;;;;;;;;;;5038491;28;20442;-61
2023/12/17 03:02:14;;;;;;;10.40;6.50;;;;;;;;;;5038220;28;20447;-61
2023/12/17 03:04:42;;;;;;;11.70;7.37;;;;;;;;;;5038156;28;20466;-61
2023/12/17 03:07:10;;;;;;;9.57;6.40;;;;;;;;;;5031452;28;20473;-61
2023/12/17 03:09:38;;;;;;;9.90;7.40;;;;;;;;;;5038297;28;20514;-61
2023/12/17 03:12:07;;;;;;;11.93;7.57;;;;;;;;;;5038235;28;20529;-62
2023/12/17 03:14:35;;;;;;;11.83;7.70;;;;;;;;;;5038018;28;20462;-61
2023/12/17 03:17:04;;;;;;;8.73;6.50;;;;;;;;;;5037924;28;21005;-61
2023/12/17 03:19:32;;;;;;;9.20;7.47;;;;;;;;;;5037772;28;20449;-61
2023/12/17 03:22:01;;;;;;;9.70;6.73;;;;;;;;;;5038374;28;20453;-62
2023/12/17 03:24:29;;;;;;;10.03;7.03;;;;;;;;;;5038128;28;20460;-61
2023/12/17 03:26:57;;;;;;;11.27;7.73;;;;;;;;;;5037909;28;20446;-62
2023/12/17 03:29:25;;;;;;;13.57;7.97;;;;;;;;;;5038210;28;20438;-62
2023/12/17 03:31:53;;;;;;;11.63;7.93;;;;;;;;;;5037675;28;21904;-61
2023/12/17 03:34:22;;;;;;;10.00;7.30;;;;;;;;;;5037633;28;20900;-62
2023/12/17 03:36:51;;;;;;;11.33;8.20;;;;;;;;;;5037404;28;20988;-61
2023/12/17 03:39:19;;;;;;;13.13;7.97;;;;;;;;;;5037880;28;20500;-61
2023/12/17 03:41:47;;;;;;;11.80;7.20;;;;;;;;;;5037714;28;20481;-61
2023/12/17 03:44:15;;;;;;;10.73;7.17;;;;;;;;;;5037668;28;20489;-62
2023/12/17 03:46:43;;;;;;;11.23;8.13;;;;;;;;;;5037289;28;20434;-63
2023/12/17 03:49:12;;;;;;;10.10;7.33;;;;;;;;;;5037856;28;20439;-62
2023/12/17 03:51:42;;;;;;;14.07;7.93;;;;;;;;;;5034087;28;20458;-62
2023/12/17 03:54:10;;;;;;;10.53;7.40;;;;;;;;;;5037831;28;20554;-62
2023/12/17 03:56:38;;;;;;;10.60;7.87;;;;;;;;;;5033941;28;20482;-62
2023/12/17 03:59:06;;;;;;;10.33;7.60;;;;;;;;;;5039594;28;20945;-62
2023/12/17 04:01:34;;;;;;;15.60;8.50;;;;;;;;;;5036396;28;20855;-61
2023/12/17 04:04:02;;;;;;;9.83;7.87;;;;;;;;;;5036832;28;20458;-61
2023/12/17 04:06:30;;;;;;;14.87;8.60;;;;;;;;;;5035971;28;20548;-61
2023/12/17 04:09:06;;;;;;;11.90;8.37;;;;;;;;;;5037283;28;20453;-61
2023/12/17 04:11:34;;;;;;;13.93;8.33;;;;;;;;;;5037634;28;20448;-61
2023/12/17 04:14:03;;;;;;;12.70;7.43;;;;;;;;;;5037241;28;20468;-61
2023/12/17 04:16:31;;;;;;;11.00;7.87;;;;;;;;;;5037442;28;20478;-61
2023/12/17 04:19:00;;;;;;;11.67;8.10;;;;;;;;;;5037502;28;20457;-61
2023/12/17 04:21:28;;;;;;;10.47;8.53;;;;;;;;;;5037434;28;20438;-61
2023/12/17 04:23:57;;;;;;;9.30;7.80;;;;;;;;;;5037488;28;20474;-61
2023/12/17 04:26:26;;;;;;;11.80;8.67;;;;;;;;;;5034592;28;20438;-61
2023/12/17 04:28:55;;;;;;;10.40;7.83;;;;;;;;;;5037276;28;20470;-61
2023/12/17 04:31:23;;;;;;;14.00;9.20;;;;;;;;;;5034395;28;20443;-61
2023/12/17 04:33:52;;;;;;;15.60;8.97;;;;;;;;;;5036848;28;20462;-61
2023/12/17 04:36:20;;;;;;;9.37;7.77;;;;;;;;;;5036771;28;20481;-61
2023/12/17 04:38:49;;;;;;;11.77;8.13;;;;;;;;;;5025989;28;20457;-61
2023/12/17 04:41:17;;;;;;;12.03;7.77;;;;;;;;;;5037151;28;20446;-61
2023/12/17 04:43:47;;;;;;;10.67;7.43;;;;;;;;;;5037002;28;20476;-62
2023/12/17 04:46:15;;;;;;;14.17;9.03;;;;;;;;;;5036516;28;20434;-61
2023/12/17 04:48:43;;;;;;;12.83;8.53;;;;;;;;;;5036982;28;20451;-61
2023/12/17 04:51:11;;;;;;;13.30;9.40;;;;;;;;;;5036850;28;20439;-61
2023/12/17 04:53:43;;;;;;;11.77;8.40;;;;;;;;;;5036880;28;20549;-61
2023/12/17 04:56:19;;;;;;;12.30;8.20;;;;;;;;;;5036850;28;20532;-61
2023/12/17 04:58:48;;;;;;;16.93;10.70;;;;;;;;;;5037226;28;20443;-61
2023/12/17 05:01:16;;;;;;;14.20;9.13;;;;;;;;;;5036686;28;20457;-61
2023/12/17 05:03:45;;;;;;;15.97;10.37;;;;;;;;;;5036528;28;20455;-61
2023/12/17 05:06:13;;;;;;;13.47;8.83;;;;;;;;;;5034942;28;20506;-61
2023/12/17 05:08:41;;;;;;;14.93;9.37;;;;;;;;;;5034975;28;20447;-61
2023/12/17 05:11:09;;;;;;;13.40;9.63;;;;;;;;;;5037797;28;20442;-61
2023/12/17 05:13:37;;;;;;;12.63;8.97;;;;;;;;;;5040120;28;20468;-61
2023/12/17 05:16:08;;;;;;;11.90;8.73;;;;;;;;;;5040486;28;20453;-61
2023/12/17 05:18:36;;;;;;;15.47;9.60;;;;;;;;;;5040200;28;20442;-61
2023/12/17 05:21:05;;;;;;;20.53;10.63;;;;;;;;;;5039786;28;20445;-61
2023/12/17 05:23:33;;;;;;;14.93;9.80;;;;;;;;;;5040088;28;20592;-61
2023/12/17 05:26:01;;;;;;;16.70;10.17;;;;;;;;;;5040167;28;20442;-61
2023/12/17 05:28:29;;;;;;;13.67;9.47;;;;;;;;;;5038402;28;20470;-61
2023/12/17 05:30:57;;;;;;;16.03;10.23;;;;;;;;;;5040516;28;20446;-61
2023/12/17 05:33:27;;;;;;;13.77;8.73;;;;;;;;;;5039446;28;20543;-61
2023/12/17 05:35:55;;;;;;;13.00;8.20;;;;;;;;;;5040326;28;20438;-61
2023/12/17 05:38:27;;;;;;;14.17;8.50;;;;;;;;;;5039643;28;20514;-61
2023/12/17 05:40:56;;;;;;;11.57;8.33;;;;;;;;;;5040166;28;20465;-61
2023/12/17 05:43:25;;;;;;;11.23;8.73;;;;;;;;;;5039736;28;20465;-61
2023/12/17 05:45:53;;;;;;;13.30;8.83;;;;;;;;;;5040000;28;20448;-61
2023/12/17 05:48:27;;;;;;;10.63;8.00;;;;;;;;;;5038691;28;20483;-61
2023/12/17 05:50:55;;;;;;;15.43;9.37;;;;;;;;;;5039736;28;20445;-61
2023/12/17 05:53:23;;;;;;;12.13;8.53;;;;;;;;;;5039997;28;20462;-61
2023/12/17 05:56:04;;;;;;;15.03;7.77;;;;;;;;;;5039401;28;20812;-61
2023/12/17 05:58:32;;;;;;;11.70;8.00;;;;;;;;;;5039398;28;20478;-61
2023/12/17 06:01:01;;;;;;;14.50;8.90;;;;;;;;;;5036414;28;20459;-61
2023/12/17 06:03:31;;;;;;;13.80;8.23;;;;;;;;;;5039462;28;20529;-61
2023/12/17 06:05:59;;;;;;;11.50;8.50;;;;;;;;;;5039311;28;20470;-61
2023/12/17 06:08:28;;;;;;;13.73;9.83;;;;;;;;;;5039645;28;20447;-61
2023/12/17 06:10:56;;;;;;;12.47;8.60;;;;;;;;;;5039518;28;20450;-61
2023/12/17 06:13:24;;;;;;;14.17;9.10;;;;;;;;;;5039241;28;20470;-61
2023/12/17 06:15:52;;;;;;;11.50;7.73;;;;;;;;;;5039439;28;20818;-61
2023/12/17 06:18:20;;;;;;;13.40;8.73;;;;;;;;;;5039008;28;20482;-61
2023/12/17 06:20:50;;;;;;;14.37;8.90;;;;;;;;;;5039491;28;20446;-61
2023/12/17 06:23:18;;;;;;;13.47;9.03;;;;;;;;;;5038308;28;20859;-62
2023/12/17 06:25:46;;;;;;;14.23;9.53;;;;;;;;;;5039184;28;20443;-61
2023/12/17 06:28:15;;;;;;;15.67;9.77;;;;;;;;;;5039320;28;20442;-61
2023/12/17 06:30:43;;;;;;;11.93;8.40;;;;;;;;;;5039564;28;20521;-61
2023/12/17 06:33:11;;;;;;;13.80;9.10;;;;;;;;;;5038532;28;20462;-61
2023/12/17 06:35:39;;;;;;;15.67;9.67;;;;;;;;;;5039261;28;20445;-61
2023/12/17 06:38:09;;;;;;;13.60;8.73;;;;;;;;;;5038834;28;20478;-61
2023/12/17 06:40:37;;;;;;;11.27;7.90;;;;;;;;;;5038903;28;20438;-61
2023/12/17 06:43:05;;;;;;;17.77;9.47;;;;;;;;;;5038867;28;20965;-61
2023/12/17 06:45:34;;;;;;;13.60;9.27;;;;;;;;;;5038432;28;20480;-61
2023/12/17 06:48:02;;;;;;;12.33;9.00;;;;;;;;;;5038878;28;20453;-61
2023/12/17 06:50:30;;;;;;;13.03;9.20;;;;;;;;;;5038483;28;20447;-61
2023/12/17 06:52:59;;;;;;;14.57;8.50;;;;;;;;;;5038805;28;20220;-61
2023/12/17 06:55:28;;;;;;;14.07;9.67;;;;;;;;;;5038744;28;20442;-61
2023/12/17 06:57:56;;;;;;;13.43;8.67;;;;;;;;;;5038362;28;20231;-62
2023/12/17 07:00:24;;;;;;;11.30;8.20;;;;;;;;;;5038702;28;20199;-62
2023/12/17 07:02:52;;;;;;;12.70;9.23;;;;;;;;;;5035229;28;20725;-62
2023/12/17 07:05:21;;;;;;;14.63;9.70;;;;;;;;;;5038208;28;20231;-62
2023/12/17 07:07:49;;;;;;;11.90;8.43;;;;;;;;;;5038287;28;20204;-61
2023/12/17 07:10:17;;;;;;;10.63;7.47;;;;;;;;;;5038526;28;20309;-61
2023/12/17 07:12:47;;;;;;;12.10;8.87;;;;;;;;;;5037722;28;20207;-61
2023/12/17 07:15:15;;;;;;;10.87;8.17;;;;;;;;;;5038085;28;20598;-61
2023/12/17 07:17:44;;;;;;;11.87;8.13;;;;;;;;;;5037699;28;20223;-61
2023/12/17 07:20:12;;;;;;;12.77;8.43;;;;;;;;;;5037968;28;20787;-61
2023/12/17 07:22:49;;;;;;;11.60;7.60;;;;;;;;;;5035847;28;20454;-61
2023/12/17 07:25:21;;;;;;;12.97;8.27;;;;;;;;;;5033107;28;20525;-61
2023/12/17 07:27:50;;;;;;;11.57;8.10;;;;;;;;;;5037546;28;20438;-61
2023/12/17 07:30:20;;;;;;;12.23;8.53;;;;;;;;;;5037976;28;20446;-61
2023/12/17 07:32:48;;;;;;;10.00;7.13;;;;;;;;;;5033361;28;20207;-61
2023/12/17 07:35:17;;;;;;;9.80;7.30;;;;;;;;;;5037480;28;20196;-61
2023/12/17 07:37:46;;;;;;;12.17;9.00;;;;;;;;;;5038084;28;20223;-61
2023/12/17 07:40:15;;;;;;;11.77;8.43;;;;;;;;;;5037589;28;20258;-61
2023/12/17 07:42:43;;;;;;;12.37;9.10;;;;;;;;;;5037550;28;20207;-61
2023/12/17 07:45:13;;;;;;;12.93;9.43;;;;;;;;;;5036373;28;20208;-61
2023/12/17 07:47:41;;;;;;;13.77;8.47;;;;;;;;;;5037148;28;20192;-61
2023/12/17 07:50:29;;;;;;;12.93;8.50;;;;;;;;;;5037877;28;20651;-61
2023/12/17 07:52:58;;;;;;;13.67;8.47;;;;;;;;;;5035033;28;20219;-61
2023/12/17 07:55:26;;;;;;;11.50;8.57;;;;;;;;;;5036878;28;20725;-61
2023/12/17 07:57:55;;;;;;;13.37;9.03;;;;;;;;;;5034855;28;20227;-61
2023/12/17 08:00:25;;;;;;;14.63;9.20;;;;;;;;;;5033630;28;20201;-61
2023/12/17 08:02:54;;;;;;;15.00;8.83;;;;;;;;;;5035408;28;20204;-61
2023/12/17 08:05:23;;;;;;;14.90;8.07;;;;;;;;;;5037127;28;20231;-61
2023/12/17 08:07:51;;;;;;;13.10;8.63;;;;;;;;;;5037454;28;20202;-61
2023/12/17 08:10:19;;;;;;;14.87;9.57;;;;;;;;;;5037253;28;20207;-61
2023/12/17 08:12:48;;;;;;;15.40;10.00;;;;;;;;;;5026947;28;20204;-61
2023/12/17 08:15:16;;;;;;;13.40;9.63;;;;;;;;;;5037194;28;20203;-61
2023/12/17 08:17:46;;;;;;;15.37;9.83;;;;;;;;;;5037173;28;20206;-62
2023/12/17 08:20:15;;;;;;;14.07;9.83;;;;;;;;;;5037234;28;20446;-61
2023/12/17 08:22:43;;;;;;;13.23;9.00;;;;;;;;;;5037067;28;20453;-60
2023/12/17 08:25:30;;;;;;;14.40;8.80;;;;;;;;;;5036396;28;20477;-60
2023/12/17 08:28:03;;;;;;;12.93;9.03;;;;;;;;;;5030082;28;20199;-62
2023/12/17 08:30:31;;;;;;;15.70;9.67;;;;;;;;;;5036413;28;20199;-61
2023/12/17 08:33:01;;;;;;;12.57;8.57;;;;;;;;;;5036938;28;20224;-62
2023/12/17 08:35:31;;;;;;;12.53;8.57;;;;;;;;;;5037449;28;20449;-61
2023/12/17 08:38:03;;;;;;;14.83;9.67;;;;;;;;;;5036713;28;20203;-60
2023/12/17 08:40:32;;;;;;;16.00;10.40;;;;;;;;;;5037185;28;20604;-60
2023/12/17 08:43:00;;;;;;;14.20;10.33;;;;;;;;;;5036629;28;20223;-60
2023/12/17 08:45:28;;;;;;;14.57;10.57;;;;;;;;;;5037238;28;20223;-60
2023/12/17 08:47:57;;;;;;;16.27;10.67;;;;;;;;;;5040525;28;20199;-60
2023/12/17 08:50:27;;;;;;;16.80;10.77;;;;;;;;;;5040710;28;20203;-60
2023/12/17 08:52:55;;;;;;;17.00;10.80;;;;;;;;;;5038494;28;20246;-60
2023/12/17 08:55:24;;;;;;;18.33;11.30;;;;;;;;;;5032905;28;20232;-60
2023/12/17 08:57:53;;;;;;;15.17;10.40;;;;;;;;;;5039298;28;20291;-60
2023/12/17 09:00:21;;;;;;;13.87;10.07;;;;;;;;;;5038787;28;20556;-60
2023/12/17 09:02:49;;;;;;;16.10;11.40;;;;;;;;;;5040191;28;20235;-60
2023/12/17 09:05:17;;;;;;;17.23;10.27;;;;;;;;;;5039969;28;20718;-60
2023/12/17 09:07:47;;;;;;;14.33;10.37;;;;;;;;;;5040603;28;20211;-60
2023/12/17 09:10:15;;;;;;;14.33;10.03;;;;;;;;;;5040751;28;20291;-60
2023/12/17 09:12:43;;;;;;;14.03;10.90;;;;;;;;;;5040566;28;20286;-60
2023/12/17 09:15:11;;;;;;;15.50;10.07;;;;;;;;;;5040461;28;20203;-60
2023/12/17 09:17:42;;;;;;;15.97;11.23;;;;;;;;;;5036126;28;20207;-60
2023/12/17 09:20:19;;;;;;;17.07;10.53;;;;;;;;;;5039646;28;20259;-60
2023/12/17 09:22:54;;;;;;;15.07;10.70;;;;;;;;;;5033522;28;20207;-59
2023/12/17 09:25:24;;;;;;;14.73;10.63;;;;;;;;;;5036359;28;20219;-59
2023/12/17 09:27:53;;;;;;;15.80;10.57;;;;;;;;;;5039839;28;20204;-60
2023/12/17 09:30:21;;;;;;;16.40;10.50;;;;;;;;;;5039727;28;20227;-60
2023/12/17 09:32:50;;;;;;;18.07;10.20;;;;;;;;;;5039447;28;20540;-59
2023/12/17 09:35:19;;;;;;;15.80;10.27;;;;;;;;;;5039372;28;20294;-59
2023/12/17 09:37:48;;;;;;;14.97;9.97;;;;;;;;;;5039786;28;20548;-58
2023/12/17 09:40:17;;;;;;;16.77;11.13;;;;;;;;;;5039397;28;20231;-60
2023/12/17 09:42:46;;;;;;;17.47;10.37;;;;;;;;;;5037152;28;20207;-59
2023/12/17 09:45:15;;;;;;;10.97;8.50;;;;;;;;;;5039675;28;20239;-60
2023/12/17 09:47:43;;;;;;;11.47;8.83;;;;;;;;;;5039010;28;20651;-60
2023/12/17 09:50:12;;;;;;;15.77;9.57;;;;;;;;;;5039484;28;20556;-60
2023/12/17 09:52:42;;;;;;;11.93;8.90;;;;;;;;;;5039018;28;20200;-60
2023/12/17 09:55:11;;;;;;;14.47;8.87;;;;;;;;;;5039168;28;20543;-60
2023/12/17 09:57:40;;;;;;;15.80;9.17;;;;;;;;;;5034625;28;20212;-60
2023/12/17 10:00:11;;;;;;;16.00;10.07;;;;;;;;;;5039369;28;20227;-60
2023/12/17 10:02:39;;;;;;;14.83;10.13;;;;;;;;;;5038574;28;20239;-60
2023/12/17 10:05:08;;;;;;;15.67;10.17;;;;;;;;;;5039161;28;20207;-60
2023/12/17 10:07:38;;;;;;;14.67;10.33;;;;;;;;;;5037721;28;20577;-60
2023/12/17 10:10:08;;;;;;;15.03;10.60;;;;;;;;;;5038822;28;20236;-60
2023/12/17 10:12:37;;;;;;;14.37;11.10;;;;;;;;;;5038044;28;20206;-60
2023/12/17 10:15:10;;;;;;;13.53;9.67;;;;;;;;;;5029079;28;20199;-60
2023/12/17 10:17:38;;;;;;;16.23;10.03;;;;;;;;;;5039217;28;20259;-60
2023/12/17 10:20:08;;;;;;;14.70;9.00;;;;;;;;;;5038938;28;20701;-59
2023/12/17 10:22:36;;;;;;;14.60;9.27;;;;;;;;;;5028507;28;20196;-59
2023/12/17 10:25:05;;;;;;;14.37;10.03;;;;;;;;;;5028204;28;20208;-59
2023/12/17 10:27:33;;;;;;;14.87;8.60;;;;;;;;;;5028307;28;20254;-59
2023/12/17 10:30:03;;;;;;;13.53;9.37;;;;;;;;;;5037905;28;20441;-61
2023/12/17 10:32:34;;;;;;;14.53;9.67;;;;;;;;;;5038654;28;20926;-60
2023/12/17 10:35:03;;;;;;;13.87;9.63;;;;;;;;;;5033460;28;20455;-60
2023/12/17 10:37:32;;;;;;;15.10;9.63;;;;;;;;;;5033341;28;20446;-60
2023/12/17 10:40:01;;;;;;;15.37;9.30;;;;;;;;;;5036581;28;20564;-61
2023/12/17 10:42:30;;;;;;;17.43;10.83;;;;;;;;;;5038445;28;20204;-60
2023/12/17 10:44:59;;;;;;;21.03;12.50;;;;;;;;;;5033729;28;21012;-60
2023/12/17 10:47:27;;;;;;;17.60;9.87;;;;;;;;;;5032599;28;20468;-60
2023/12/17 10:49:58;;;;;;;17.57;9.87;;;;;;;;;;5030121;28;20956;-60
2023/12/17 10:52:26;;;;;;;13.53;10.00;;;;;;;;;;5038717;28;20445;-60
2023/12/17 10:54:54;;;;;;;14.97;9.87;;;;;;;;;;5035468;28;20462;-61
2023/12/17 10:57:24;;;;;;;14.10;9.83;;;;;;;;;;5038572;28;20447;-61
2023/12/17 10:59:53;;;;;;;13.63;9.77;;;;;;;;;;5032144;28;20242;-61
2023/12/17 11:02:23;;;;;;;18.13;10.10;;;;;;;;;;5029635;28;20450;-60
2023/12/17 11:04:51;;;;;;;15.80;9.83;;;;;;;;;;5037739;28;20224;-61
2023/12/17 11:07:21;;;;;;;15.83;9.67;;;;;;;;;;5027671;28;20461;-61
2023/12/17 11:10:06;;;;;;;18.40;10.90;;;;;;;;;;5037897;28;20713;-61
2023/12/17 11:12:35;;;;;;;16.30;10.30;;;;;;;;;;5038431;28;20288;-61
2023/12/17 11:15:03;;;;;;;17.93;10.90;;;;;;;;;;5033909;28;20204;-60
2023/12/17 11:17:31;;;;;;;16.27;10.63;;;;;;;;;;5034366;28;20208;-61
2023/12/17 11:20:01;;;;;;;19.93;12.00;;;;;;;;;;5039429;28;20246;-61
2023/12/17 11:22:34;;;;;;;17.10;11.10;;;;;;;;;;5037461;28;20722;-61
2023/12/17 11:25:04;;;;;;;15.03;9.93;;;;;;;;;;5039188;28;20210;-61
2023/12/17 11:27:32;;;;;;;15.00;9.67;;;;;;;;;;5037357;28;20295;-61
2023/12/17 11:30:03;;;;;;;14.23;9.93;;;;;;;;;;5036553;28;20199;-62
2023/12/17 11:32:31;;;;;;;16.87;10.93;;;;;;;;;;5036886;28;20196;-62
2023/12/17 11:35:01;;;;;;;14.10;10.60;;;;;;;;;;5037505;28;20219;-62
2023/12/17 11:37:34;;;;;;;13.93;10.00;;;;;;;;;;5028739;28;20207;-61
2023/12/17 11:40:03;;;;;;;13.07;9.47;;;;;;;;;;5037050;28;20219;-61
2023/12/17 11:42:31;;;;;;;18.40;11.67;;;;;;;;;;5032366;28;20242;-61
2023/12/17 11:44:59;;;;;;;16.30;9.97;;;;;;;;;;5037195;28;20279;-62
2023/12/17 11:47:27;;;;;;;14.00;9.67;;;;;;;;;;5037373;28;20199;-61
2023/12/17 11:49:59;;;;;;;17.23;10.80;;;;;;;;;;5036978;28;20269;-61
2023/12/17 11:52:28;;;;;;;18.33;10.53;;;;;;;;;;5035251;28;20271;-61
2023/12/17 11:55:02;;;;;;;19.50;11.77;;;;;;;;;;5037513;28;20231;-61
2023/12/17 11:57:31;;;;;;;17.03;11.10;;;;;;;;;;5037144;28;20199;-61
2023/12/17 11:59:59;;;;;;;14.10;9.97;;;;;;;;;;5034576;28;20351;-62
2023/12/17 12:02:29;;;;;;;18.40;10.87;;;;;;;;;;5037086;28;20199;-61
2023/12/17 12:04:58;;;;;;;17.00;10.83;;;;;;;;;;5036153;28;20230;-62
2023/12/17 12:07:27;;;;;;;14.63;10.47;;;;;;;;;;5037354;28;20722;-61
2023/12/17 12:10:05;;;;;;;16.13;10.40;;;;;;;;;;5037129;28;20663;-62
2023/12/17 12:12:35;;;;;;;14.13;10.30;;;;;;;;;;5037449;28;20203;-61
2023/12/17 12:15:04;;;;;;;16.43;10.63;;;;;;;;;;5037260;28;20207;-61
2023/12/17 12:17:39;;;;;;;18.00;11.70;;;;;;;;;;5034963;28;20238;-61
2023/12/17 12:20:09;;;;;;;16.93;10.50;;;;;;;;;;5030890;28;20225;-61
2023/12/17 12:22:39;;;;;;;16.37;10.70;;;;;;;;;;5032721;28;20210;-61
2023/12/17 12:25:08;;;;;;;17.40;10.60;;;;;;;;;;5032444;28;20234;-62
2023/12/17 12:27:37;;;;;;;16.60;11.10;;;;;;;;;;5032874;28;20203;-61
2023/12/17 12:30:06;;;;;;;14.97;10.53;;;;;;;;;;5035271;28;20646;-59
2023/12/17 12:32:35;;;;;;;14.53;10.10;;;;;;;;;;5035810;28;20207;-61
2023/12/17 12:35:03;;;;;;;15.63;11.47;;;;;;;;;;5036465;28;20200;-61
2023/12/17 12:37:32;;;;;;;16.73;11.10;;;;;;;;;;5037124;28;20215;-61
2023/12/17 12:40:01;;;;;;;15.90;10.90;;;;;;;;;;5036339;28;20196;-61
2023/12/17 12:42:32;;;;;;;15.73;10.87;;;;;;;;;;5037114;28;20290;-61
2023/12/17 12:45:02;;;;;;;14.57;9.67;;;;;;;;;;5036502;28;20227;-61
2023/12/17 12:47:30;;;;;;;17.10;9.67;;;;;;;;;;5036814;28;20235;-60
2023/12/17 12:49:59;;;;;;;14.90;9.63;;;;;;;;;;5036858;28;20203;-62
2023/12/17 12:52:27;;;;;;;11.90;9.33;;;;;;;;;;5033878;28;20205;-62
2023/12/17 12:54:55;;;;;;;13.57;9.33;;;;;;;;;;5034799;28;20230;-62
2023/12/17 12:57:23;;;;;;;15.47;9.80;;;;;;;;;;5036401;28;20658;-62
2023/12/17 12:59:52;;;;;;;13.93;9.43;;;;;;;;;;5036687;28;20207;-62
2023/12/17 13:02:21;;;;;;;13.43;10.30;;;;;;;;;;5035764;28;20686;-61
2023/12/17 13:04:49;;;;;;;13.80;10.10;;;;;;;;;;5036584;28;20224;-61
2023/12/17 13:07:17;;;;;;;14.57;9.60;;;;;;;;;;5036601;28;20239;-62
2023/12/17 13:09:45;;;;;;;12.47;9.37;;;;;;;;;;5036798;28;20215;-62
2023/12/17 13:12:27;;;;;;;13.27;8.87;;;;;;;;;;5035946;28;20287;-61
2023/12/17 13:14:55;;;;;;;12.30;8.70;;;;;;;;;;5036678;28;20646;-61
2023/12/17 13:17:25;;;;;;;15.40;9.27;;;;;;;;;;5036199;28;20231;-62
2023/12/17 13:19:53;;;;;;;15.37;10.07;;;;;;;;;;5036514;28;20204;-61
2023/12/17 13:22:21;;;;;;;15.77;9.83;;;;;;;;;;5029933;28;20690;-62
2023/12/17 13:24:51;;;;;;;14.73;10.53;;;;;;;;;;5036482;28;20220;-62
2023/12/17 13:27:19;;;;;;;12.90;9.33;;;;;;;;;;5034033;28;20621;-62
2023/12/17 13:29:47;;;;;;;13.73;10.03;;;;;;;;;;5035225;28;20647;-61
2023/12/17 13:32:16;;;;;;;16.27;9.23;;;;;;;;;;5036829;28;20207;-61
2023/12/17 13:34:46;;;;;;;12.23;9.13;;;;;;;;;;5036827;28;20586;-61
2023/12/17 13:37:14;;;;;;;14.37;9.27;;;;;;;;;;5034999;28;20298;-61
2023/12/17 13:39:42;;;;;;;14.77;9.07;;;;;;;;;;5026777;28;20204;-60
2023/12/17 13:42:10;;;;;;;13.53;9.40;;;;;;;;;;5039939;28;20223;-60
2023/12/17 13:44:38;;;;;;;13.03;8.50;;;;;;;;;;5039632;28;20600;-60
2023/12/17 13:47:06;;;;;;;9.67;8.27;;;;;;;;;;5038463;28;20721;-60
2023/12/17 13:49:36;;;;;;;12.90;9.20;;;;;;;;;;5035019;28;20573;-60
2023/12/17 13:52:07;;;;;;;15.47;9.83;;;;;;;;;;5039509;28;20566;-60
2023/12/17 13:54:35;;;;;;;13.50;9.50;;;;;;;;;;5039725;28;20254;-60
2023/12/17 13:57:04;;;;;;;12.60;8.70;;;;;;;;;;5039350;28;20215;-60
2023/12/17 13:59:32;;;;;;;15.77;9.93;;;;;;;;;;5039638;28;20612;-60
2023/12/17 14:02:00;;;;;;;13.47;8.83;;;;;;;;;;5038870;28;20235;-60
2023/12/17 14:04:29;;;;;;;14.03;9.73;;;;;;;;;;5039191;28;20219;-59
2023/12/17 14:06:57;;;;;;;12.67;9.53;;;;;;;;;;5039295;28;20241;-60
2023/12/17 14:09:27;;;;;;;13.00;9.27;;;;;;;;;;5039235;28;20278;-59
2023/12/17 14:11:55;;;;;;;12.30;9.40;;;;;;;;;;5039773;28;20207;-59
2023/12/17 14:14:23;;;;;;;15.50;10.27;;;;;;;;;;5034740;28;20254;-60
2023/12/17 14:16:51;;;;;;;13.63;9.87;;;;;;;;;;5038879;28;20298;-59
2023/12/17 14:19:19;;;;;;;13.57;9.50;;;;;;;;;;5032263;28;20199;-59
2023/12/17 14:21:47;;;;;;;14.57;10.40;;;;;;;;;;5038976;28;20234;-60
2023/12/17 14:24:16;;;;;;;16.87;10.37;;;;;;;;;;5039018;28;20231;-60
2023/12/17 14:26:46;;;;;;;12.57;9.07;;;;;;;;;;5038859;28;20577;-59
2023/12/17 14:29:14;;;;;;;13.13;9.50;;;;;;;;;;5039241;28;20203;-59
2023/12/17 14:31:42;;;;;;;15.43;10.10;;;;;;;;;;5038755;28;20211;-60
2023/12/17 14:34:10;;;;;;;13.03;9.13;;;;;;;;;;5039164;28;20250;-60
2023/12/17 14:36:39;;;;;;;14.87;9.93;;;;;;;;;;5035820;28;20192;-59
2023/12/17 14:39:07;;;;;;;15.47;10.23;;;;;;;;;;5038585;28;20204;-60